Time;durP1;ratioP1;P1;durP2;ratioP2;P2;SDS_P1;SDS_P2;PMS_P1;PMS_P2;Temp;Humidity;BMP_temperature;BMP_pressure;BME280_temperature;BME280_humidity;BME280_pressure;Samples;Min_cycle;Max_cycle;Signal;HPM_P1;HPM_P2
2021/01/18 00:01:40;;;;;;;19.00;9.00;;;;;;;4.85;85.16;100979.97;8515481;33;21050;-72
2021/01/18 00:06:43;;;;;;;25.20;11.85;;;;;;;4.61;86.13;100979.88;8526215;33;21109;-72
2021/01/18 00:11:45;;;;;;;29.73;11.00;;;;;;;4.94;85.01;100984.97;8529463;33;20418;-72
2021/01/18 00:16:50;;;;;;;22.87;11.13;;;;;;;4.87;84.65;100991.38;8545270;33;20462;-74
2021/01/18 00:21:53;;;;;;;25.45;11.88;;;;;;;4.96;84.72;100984.91;8560351;33;20446;-72
2021/01/18 00:26:55;;;;;;;27.50;10.32;;;;;;;5.05;84.85;100987.25;8539268;33;20195;-71
2021/01/18 00:31:59;;;;;;;33.92;10.98;;;;;;;4.99;85.27;100988.34;8539706;33;20561;-72
2021/01/18 00:37:02;;;;;;;33.78;11.43;;;;;;;5.00;85.07;100982.13;8538551;33;20814;-71
2021/01/18 00:42:05;;;;;;;33.17;11.53;;;;;;;5.09;84.24;100980.94;8539230;33;21863;-74
2021/01/18 00:47:08;;;;;;;26.57;11.00;;;;;;;5.02;84.43;100982.03;8539224;33;20393;-72
2021/01/18 00:52:13;;;;;;;29.97;11.73;;;;;;;4.92;84.93;100985.94;8539130;33;20427;-72
2021/01/18 00:57:15;;;;;;;36.73;12.97;;;;;;;5.00;84.61;100992.72;8535160;33;20941;-74
2021/01/18 01:02:21;;;;;;;21.60;10.47;;;;;;;5.01;84.07;100989.13;8538908;33;20469;-72
2021/01/18 01:07:23;;;;;;;23.67;9.80;;;;;;;5.00;84.25;100991.84;8539233;33;20140;-72
2021/01/18 01:12:26;;;;;;;23.65;9.05;;;;;;;4.71;84.93;101001.59;8539641;33;20191;-73
2021/01/18 01:17:29;;;;;;;22.45;9.43;;;;;;;5.01;83.99;100997.06;8545496;33;20411;-74
2021/01/18 01:22:31;;;;;;;15.07;7.25;;;;;;;4.99;83.80;101004.22;8546822;33;21478;-74
2021/01/18 01:27:34;;;;;;;20.83;8.80;;;;;;;5.08;83.46;100987.16;8543296;33;20978;-73
2021/01/18 01:32:40;;;;;;;22.90;7.67;;;;;;;4.94;83.82;100994.69;8541526;33;20939;-71
2021/01/18 01:37:42;;;;;;;24.23;10.05;;;;;;;4.78;83.78;101004.94;8541423;33;20486;-74
2021/01/18 01:42:45;;;;;;;18.95;6.22;;;;;;;4.72;83.96;100998.06;8540671;33;20190;-73
2021/01/18 01:47:50;;;;;;;29.50;9.67;;;;;;;4.83;83.67;100998.56;8541096;33;20340;-73
2021/01/18 01:52:57;;;;;;;25.57;7.40;;;;;;;4.84;83.79;101000.28;8538799;33;20988;-73
2021/01/18 01:58:03;;;;;;;12.65;6.00;;;;;;;4.70;84.22;100997.25;8539069;33;20910;-73
2021/01/18 02:03:09;;;;;;;18.00;7.93;;;;;;;5.01;83.54;100988.25;8528266;33;20557;-73
2021/01/18 02:08:11;;;;;;;19.13;6.22;;;;;;;5.02;83.54;100996.19;8540168;33;20152;-71
2021/01/18 02:13:26;;;;;;;20.70;7.73;;;;;;;5.13;83.25;100980.78;8540973;33;20639;-71
2021/01/18 02:18:52;;;;;;;21.93;8.43;;;;;;;5.22;83.23;100976.06;8544066;33;20418;-74
2021/01/18 02:30:31;;;;;;;18.35;6.95;;;;;;;5.32;83.15;100975.69;8784548;32;20859;-72
2021/01/18 02:36:10;;;;;;;30.52;7.95;;;;;;;5.36;82.92;100973.78;8740779;33;20596;-72
2021/01/18 02:41:23;;;;;;;17.10;7.57;;;;;;;5.38;82.95;100979.91;8740343;33;20136;-72
2021/01/18 02:46:27;;;;;;;19.90;7.47;;;;;;;5.35;83.12;100983.53;8738741;33;20182;-72
2021/01/18 02:51:34;;;;;;;13.55;6.70;;;;;;;5.28;83.06;100974.06;8740124;33;20183;-73
2021/01/18 02:56:37;;;;;;;14.10;6.25;;;;;;;5.27;83.00;100976.78;8740196;33;20435;-73
2021/01/18 03:02:13;;;;;;;14.07;4.47;;;;;;;5.33;83.14;100980.06;8740092;33;20262;-73
2021/01/18 03:07:25;;;;;;;19.58;6.28;;;;;;;5.15;83.73;100980.69;8740384;33;20147;-73
2021/01/18 03:12:35;;;;;;;18.88;6.43;;;;;;;5.41;83.33;100981.59;8739806;33;20436;-73
2021/01/18 03:17:40;;;;;;;16.25;6.65;;;;;;;5.50;83.09;100986.53;8739615;33;20201;-72
2021/01/18 03:22:44;;;;;;;16.38;6.25;;;;;;;5.29;83.90;100994.34;8739189;33;20136;-73
2021/01/18 03:27:51;;;;;;;12.73;5.88;;;;;;;5.20;84.29;100992.00;8739052;33;20191;-74
2021/01/18 03:32:56;;;;;;;16.60;5.45;;;;;;;5.37;83.93;100990.56;8740636;33;20136;-71
2021/01/18 03:38:00;;;;;;;19.95;6.03;;;;;;;5.33;83.77;100992.47;8735306;33;20243;-73
2021/01/18 03:43:04;;;;;;;24.92;7.75;;;;;;;5.22;84.49;100997.28;8719851;33;20176;-73
2021/01/18 03:48:09;;;;;;;19.98;7.00;;;;;;;5.34;83.57;100994.16;8719472;33;20657;-71
2021/01/18 03:53:12;;;;;;;19.27;7.03;;;;;;;5.29;83.91;100994.34;8719698;33;20692;-74
2021/01/18 03:58:15;;;;;;;18.30;6.47;;;;;;;5.34;83.97;100989.72;8720316;33;20469;-73
2021/01/18 04:03:19;;;;;;;18.73;5.82;;;;;;;5.28;83.87;100991.75;8720086;33;20183;-74
2021/01/18 04:08:22;;;;;;;17.45;8.23;;;;;;;5.28;84.11;100989.09;8720246;33;20144;-73
2021/01/18 04:13:24;;;;;;;19.17;8.00;;;;;;;5.20;84.23;100989.34;8718638;33;20800;-73
2021/01/18 04:18:27;;;;;;;22.17;8.13;;;;;;;5.31;84.42;100988.97;8721872;33;20213;-73
2021/01/18 04:23:30;;;;;;;13.52;5.57;;;;;;;5.39;83.66;100983.41;8723256;33;20183;-73
2021/01/18 04:28:32;;;;;;;22.20;7.72;;;;;;;5.34;83.79;100980.91;8723848;33;20192;-74
2021/01/18 04:33:36;;;;;;;20.02;7.32;;;;;;;5.43;83.58;100985.03;8722593;33;20191;-71
2021/01/18 04:38:39;;;;;;;17.88;7.03;;;;;;;5.50;83.26;100979.44;8718807;33;20263;-71
2021/01/18 04:43:41;;;;;;;17.70;6.47;;;;;;;5.21;83.80;100991.13;8718182;33;20278;-71
2021/01/18 04:48:44;;;;;;;19.30;4.95;;;;;;;5.43;83.70;100977.97;8717691;33;20658;-71
2021/01/18 04:53:50;;;;;;;8.80;4.78;;;;;;;5.31;83.32;100981.91;8718303;33;20214;-73
2021/01/18 04:59:00;;;;;;;15.70;6.93;;;;;;;5.23;83.88;100989.25;8718893;33;20136;-73
2021/01/18 05:04:05;;;;;;;17.90;6.83;;;;;;;5.01;84.06;101002.38;8718214;33;20261;-73
2021/01/18 05:09:27;;;;;;;19.25;8.02;;;;;;;5.21;83.45;100992.88;8717353;33;20683;-71
2021/01/18 05:14:31;;;;;;;20.63;8.52;;;;;;;5.27;83.44;100988.25;8723245;33;21673;-73
2021/01/18 05:19:33;;;;;;;22.38;7.78;;;;;;;5.14;84.03;100986.94;8738288;33;20725;-72
2021/01/18 05:24:36;;;;;;;18.58;9.13;;;;;;;5.03;84.56;100997.91;8727175;33;20270;-72
2021/01/18 05:29:39;;;;;;;22.75;10.32;;;;;;;5.15;84.32;100987.78;8717774;33;20219;-72
2021/01/18 05:34:42;;;;;;;19.13;9.02;;;;;;;5.04;83.96;100989.00;8717657;33;20459;-72
2021/01/18 05:39:45;;;;;;;23.63;9.32;;;;;;;5.12;84.63;100984.31;8715434;33;20604;-72
2021/01/18 05:44:47;;;;;;;21.30;9.63;;;;;;;5.22;84.08;100979.59;8717597;33;20179;-72
2021/01/18 05:49:51;;;;;;;19.63;7.80;;;;;;;5.09;83.98;100992.38;8717958;33;20121;-72
2021/01/18 05:55:20;;;;;;;20.63;7.70;;;;;;;4.90;84.47;101002.72;8718247;33;20190;-71
2021/01/18 06:00:28;;;;;;;17.42;7.65;;;;;;;5.10;84.24;100994.13;8716370;33;20799;-73
2021/01/18 06:05:33;;;;;;;19.10;8.13;;;;;;;5.17;83.82;100994.78;8720606;33;20202;-74
2021/01/18 06:10:36;;;;;;;11.83;4.60;;;;;;;4.93;83.89;100983.22;8719934;33;20695;-74
2021/01/18 06:15:39;;;;;;;15.15;7.68;;;;;;;4.77;85.23;100993.50;8718747;33;20614;-72
2021/01/18 06:20:43;;;;;;;26.17;9.27;;;;;;;5.32;83.84;100996.91;8717234;33;20183;-73
2021/01/18 06:25:51;;;;;;;26.63;10.82;;;;;;;5.34;83.94;101002.97;8717646;33;20668;-73
2021/01/18 06:30:57;;;;;;;14.07;5.95;;;;;;;5.25;83.63;101002.47;8716744;33;20779;-74
2021/01/18 06:36:14;;;;;;;18.30;7.63;;;;;;;5.10;84.89;100990.59;8716548;33;20767;-73
2021/01/18 06:41:24;;;;;;;30.00;11.40;;;;;;;5.29;84.41;100989.06;8716953;33;20222;-73
2021/01/18 06:46:31;;;;;;;26.35;10.63;;;;;;;5.31;84.19;100981.91;8716795;33;20183;-74
2021/01/18 06:51:34;;;;;;;28.58;12.20;;;;;;;5.23;84.25;100993.69;8716388;33;20188;-74
2021/01/18 06:57:07;;;;;;;33.55;11.43;;;;;;;5.39;84.11;100994.03;8716143;33;20263;-74
2021/01/18 07:02:27;;;;;;;25.50;12.25;;;;;;;5.33;84.12;101005.69;8720341;33;20921;-73
2021/01/18 07:07:34;;;;;;;18.63;10.20;;;;;;;5.35;84.57;101010.03;8716552;33;21561;-73
2021/01/18 07:12:38;;;;;;;27.10;9.63;;;;;;;5.55;83.57;101005.81;8716952;33;20584;-73
2021/01/18 07:17:55;;;;;;;30.60;10.00;;;;;;;5.66;83.16;101008.06;8721083;33;20183;-74
2021/01/18 07:23:25;;;;;;;23.73;8.75;;;;;;;5.67;82.97;101001.84;8721130;33;21596;-73
2021/01/18 07:28:29;;;;;;;26.75;10.82;;;;;;;5.64;83.45;101002.81;8720622;33;21750;-73
2021/01/18 07:33:32;;;;;;;25.10;10.00;;;;;;;5.52;83.54;101012.06;8720445;33;20318;-73
2021/01/18 07:38:37;;;;;;;25.30;11.63;;;;;;;5.59;83.74;101004.75;8720671;33;20214;-73
2021/01/18 07:43:42;;;;;;;19.25;8.35;;;;;;;5.34;84.18;100996.81;8719046;33;20214;-73
2021/01/18 07:48:58;;;;;;;23.27;11.15;;;;;;;5.38;83.95;101009.06;8720214;33;20718;-73
2021/01/18 07:54:05;;;;;;;30.33;12.88;;;;;;;5.48;84.00;100991.88;8720279;33;20128;-73
2021/01/18 07:59:10;;;;;;;29.63;13.57;;;;;;;5.75;83.08;100979.41;8682165;33;21121;-74
2021/01/18 08:04:19;;;;;;;31.92;13.73;;;;;;;5.75;82.96;100970.59;8661433;33;20145;-74
2021/01/18 08:09:28;;;;;;;30.95;11.65;;;;;;;5.70;83.06;100972.56;8661310;33;20675;-74
2021/01/18 08:14:32;;;;;;;31.55;12.88;;;;;;;5.53;83.26;100967.88;8661422;33;20461;-73
2021/01/18 08:19:34;;;;;;;23.02;10.77;;;;;;;5.57;83.09;100985.41;8659810;33;20184;-73
2021/01/18 08:24:53;;;;;;;29.17;13.75;;;;;;;5.92;82.14;100975.25;8661534;33;20681;-73
2021/01/18 08:29:57;;;;;;;35.50;14.37;;;;;;;5.87;82.12;100978.09;8661054;33;20378;-73
2021/01/18 08:35:02;;;;;;;27.92;11.50;;;;;;;5.67;82.48;100980.63;8660826;33;20176;-72
2021/01/18 08:40:13;;;;;;;33.42;13.38;;;;;;;5.94;81.77;100971.66;8659477;33;20176;-73
2021/01/18 08:45:23;;;;;;;27.75;12.80;;;;;;;5.93;81.56;100974.34;8661678;33;20153;-72
2021/01/18 08:50:28;;;;;;;30.08;13.70;;;;;;;5.89;82.16;100962.13;8659245;33;21804;-73
2021/01/18 08:55:43;;;;;;;32.08;15.73;;;;;;;5.94;81.69;100960.19;8660112;33;20180;-72
2021/01/18 09:00:47;;;;;;;32.35;12.85;;;;;;;5.97;82.01;100968.88;8659660;33;20287;-73
2021/01/18 09:05:55;;;;;;;45.35;14.38;;;;;;;5.97;82.03;100968.03;8660440;33;20952;-73
2021/01/18 09:11:01;;;;;;;39.17;13.38;;;;;;;6.09;81.63;100979.94;8699390;33;20190;-73
2021/01/18 09:16:09;;;;;;;42.88;15.15;;;;;;;6.13;81.85;100971.81;8717869;33;20184;-72
2021/01/18 09:21:12;;;;;;;27.50;11.52;;;;;;;5.87;81.85;100964.84;8694015;33;20190;-72
2021/01/18 09:26:18;;;;;;;39.58;15.82;;;;;;;5.91;81.72;100976.19;8718302;33;20186;-73
2021/01/18 09:31:22;;;;;;;51.75;19.45;;;;;;;5.84;82.21;100974.69;8719013;33;20179;-74
2021/01/18 09:36:25;;;;;;;41.78;15.35;;;;;;;5.96;82.01;100976.91;8740914;33;20191;-74
2021/01/18 09:41:28;;;;;;;22.80;9.82;;;;;;;5.79;82.37;100990.78;8719110;33;20218;-74
2021/01/18 09:46:36;;;;;;;31.20;13.63;;;;;;;5.42;83.08;100989.47;8718242;33;20722;-73
2021/01/18 09:51:40;;;;;;;33.45;12.85;;;;;;;5.75;82.70;100968.81;8717423;33;20431;-73
2021/01/18 09:56:44;;;;;;;34.53;14.75;;;;;;;5.82;82.52;100968.59;8718001;33;20251;-73
2021/01/18 10:01:49;;;;;;;21.48;7.70;;;;;;;5.90;81.87;100953.25;8717935;33;20278;-72
2021/01/18 10:07:04;;;;;;;24.55;11.68;;;;;;;6.05;81.40;100967.75;8718348;33;20212;-74
2021/01/18 10:12:14;;;;;;;29.80;12.40;;;;;;;6.00;81.10;100959.94;8749986;33;20552;-73
2021/01/18 10:17:17;;;;;;;17.08;8.32;;;;;;;5.93;80.88;100959.34;8743255;33;20187;-74
2021/01/18 10:22:20;;;;;;;35.47;13.50;;;;;;;5.91;81.23;100958.50;8721241;33;20151;-74
2021/01/18 10:27:26;;;;;;;39.22;14.68;;;;;;;6.06;81.09;100956.19;8715859;33;20240;-73
2021/01/18 10:32:40;;;;;;;30.33;13.50;;;;;;;6.05;80.29;100938.56;8716817;33;20425;-75
2021/01/18 10:37:42;;;;;;;37.33;12.75;;;;;;;6.27;79.59;100935.91;8716986;33;20353;-75
2021/01/18 10:42:51;;;;;;;18.67;8.05;;;;;;;6.20;79.39;100940.63;8716885;33;20181;-75
2021/01/18 10:47:57;;;;;;;30.15;13.88;;;;;;;6.31;79.59;100924.25;8716832;33;21432;-74
2021/01/18 10:53:07;;;;;;;22.50;9.82;;;;;;;6.26;79.46;100931.53;8722333;33;20342;-74
2021/01/18 10:58:09;;;;;;;36.67;12.93;;;;;;;6.35;79.04;100944.44;8722135;33;20148;-75
2021/01/18 11:03:13;;;;;;;37.83;15.38;;;;;;;6.51;79.11;100918.13;8722498;33;20325;-75
2021/01/18 11:08:15;;;;;;;39.85;17.05;;;;;;;6.48;79.26;100905.00;8722620;33;20152;-75
2021/01/18 11:13:18;;;;;;;37.25;15.70;;;;;;;6.58;78.91;100915.16;8719655;33;21602;-74
2021/01/18 11:18:22;;;;;;;33.23;15.20;;;;;;;6.43;79.19;100889.25;8721772;33;20428;-74
2021/01/18 11:23:24;;;;;;;37.95;13.73;;;;;;;6.55;78.86;100882.56;8721741;33;20187;-74
2021/01/18 11:28:27;;;;;;;38.90;15.25;;;;;;;6.48;79.17;100887.28;8719723;33;20191;-74
2021/01/18 11:33:30;;;;;;;34.38;13.18;;;;;;;6.56;78.86;100881.66;8720783;33;20728;-75
2021/01/18 11:38:32;;;;;;;29.70;14.27;;;;;;;6.50;79.24;100874.81;8719148;33;20233;-74
2021/01/18 11:43:35;;;;;;;36.97;14.48;;;;;;;6.83;78.43;100866.31;8690452;33;20854;-73
2021/01/18 11:48:42;;;;;;;22.55;10.18;;;;;;;6.51;78.58;100849.09;8714970;33;20191;-76
2021/01/18 11:53:46;;;;;;;34.03;14.38;;;;;;;6.46;79.42;100859.91;8711610;33;20674;-73
2021/01/18 11:58:48;;;;;;;35.13;14.93;;;;;;;6.74;78.57;100846.31;8717458;33;20187;-74
2021/01/18 12:03:52;;;;;;;30.05;12.73;;;;;;;6.52;78.94;100854.34;8714102;33;20503;-73
2021/01/18 12:08:55;;;;;;;28.40;13.00;;;;;;;6.40;79.72;100842.47;8718788;33;20449;-75
2021/01/18 12:13:57;;;;;;;14.48;7.50;;;;;;;6.42;78.70;100859.19;8718820;33;20187;-73
2021/01/18 12:19:01;;;;;;;36.85;16.15;;;;;;;6.34;79.70;100833.91;8718869;33;20148;-74
2021/01/18 12:24:05;;;;;;;30.50;9.70;;;;;;;6.48;78.66;100835.97;8718419;33;20179;-75
2021/01/18 12:29:07;;;;;;;28.25;11.38;;;;;;;6.48;78.57;100820.91;8719065;33;20167;-75
2021/01/18 12:34:10;;;;;;;30.38;14.93;;;;;;;6.55;77.70;100813.53;8716224;33;20241;-75
2021/01/18 12:39:13;;;;;;;30.27;14.00;;;;;;;6.34;77.81;100805.56;8718844;33;20239;-74
2021/01/18 12:44:16;;;;;;;40.22;17.35;;;;;;;6.71;76.90;100811.06;8719259;33;20253;-74
2021/01/18 12:49:19;;;;;;;37.47;15.43;;;;;;;6.68;77.40;100802.31;8717053;33;20570;-74
2021/01/18 12:54:22;;;;;;;36.95;17.63;;;;;;;6.92;77.05;100788.00;8717708;33;20430;-74
2021/01/18 12:59:24;;;;;;;19.88;9.68;;;;;;;6.62;77.01;100784.00;8716625;33;20175;-74
2021/01/18 13:04:28;;;;;;;24.42;10.38;;;;;;;6.63;76.59;100791.00;8715782;33;20175;-74
2021/01/18 13:09:31;;;;;;;15.63;7.97;;;;;;;6.68;76.02;100791.69;8715490;33;20423;-74
2021/01/18 13:14:33;;;;;;;29.90;13.25;;;;;;;6.65;76.40;100773.22;8712880;33;20275;-74
2021/01/18 13:19:36;;;;;;;23.55;11.38;;;;;;;6.45;76.58;100767.94;8716678;33;20484;-74
2021/01/18 13:24:39;;;;;;;28.00;10.00;;;;;;;6.71;76.36;100774.75;8717470;33;20615;-74
2021/01/18 13:29:41;;;;;;;28.23;12.60;;;;;;;6.59;76.85;100754.94;8716396;33;20684;-74
2021/01/18 13:34:44;;;;;;;26.77;12.70;;;;;;;6.67;77.20;100766.06;8719174;33;20171;-74
2021/01/18 13:39:47;;;;;;;24.33;10.27;;;;;;;6.32;78.65;100783.53;8716288;33;20447;-74
2021/01/18 13:44:49;;;;;;;30.08;12.75;;;;;;;6.17;79.97;100771.78;8717250;33;20183;-74
2021/01/18 13:49:52;;;;;;;36.78;13.73;;;;;;;6.12;80.84;100772.91;8713959;33;20688;-74
2021/01/18 13:54:56;;;;;;;17.05;8.82;;;;;;;6.00;81.91;100787.53;8716419;33;20361;-73
2021/01/18 13:59:59;;;;;;;34.83;16.45;;;;;;;5.88;81.63;100766.81;8715459;33;20517;-74
2021/01/18 14:05:03;;;;;;;18.40;7.60;;;;;;;5.98;81.05;100741.66;8715724;33;20152;-74
2021/01/18 14:10:07;;;;;;;29.80;12.13;;;;;;;6.22;80.81;100748.56;8714824;33;20234;-73
2021/01/18 14:15:10;;;;;;;29.02;13.43;;;;;;;6.22;80.20;100772.44;8716436;33;20288;-73
2021/01/18 14:20:14;;;;;;;34.20;15.02;;;;;;;6.34;80.20;100746.31;8715478;33;20237;-73
2021/01/18 14:25:17;;;;;;;20.38;10.13;;;;;;;6.03;79.17;100744.09;8717233;33;20274;-72
2021/01/18 14:30:20;;;;;;;29.33;12.95;;;;;;;6.45;79.61;100750.22;8714940;33;20195;-72
2021/01/18 14:35:24;;;;;;;14.45;7.35;;;;;;;6.23;79.09;100738.84;8718063;33;20187;-72
2021/01/18 14:40:26;;;;;;;11.57;6.25;;;;;;;6.25;78.55;100755.53;8715313;33;21611;-72
2021/01/18 14:45:29;;;;;;;19.73;10.02;;;;;;;6.46;77.77;100738.66;8715783;33;20596;-74
2021/01/18 14:50:34;;;;;;;15.45;8.05;;;;;;;6.16;77.89;100732.06;8715466;33;21351;-73
2021/01/18 14:55:37;;;;;;;30.13;9.40;;;;;;;6.27;77.53;100744.84;8747818;33;20430;-75
2021/01/18 15:00:39;;;;;;;21.05;8.73;;;;;;;6.52;76.66;100726.06;8761714;33;20156;-73
2021/01/18 15:05:44;;;;;;;22.40;9.88;;;;;;;6.59;76.23;100725.72;8714786;33;20274;-72
2021/01/18 15:10:46;;;;;;;24.75;12.15;;;;;;;6.55;76.27;100718.81;8714812;33;20908;-74
2021/01/18 15:15:49;;;;;;;23.05;11.43;;;;;;;6.56;75.82;100722.34;8714615;33;20445;-72
2021/01/18 15:21:00;;;;;;;22.52;8.02;;;;;;;6.53;76.34;100715.38;8713518;33;20202;-75
2021/01/18 15:26:02;;;;;;;20.00;9.40;;;;;;;6.49;76.27;100718.22;8713437;33;20278;-74
2021/01/18 15:31:05;;;;;;;21.08;11.02;;;;;;;6.45;76.45;100721.03;8661238;33;20181;-74
2021/01/18 15:36:09;;;;;;;15.27;7.82;;;;;;;6.43;76.25;100714.06;8656581;33;20301;-74
2021/01/18 15:41:16;;;;;;;18.80;9.93;;;;;;;6.50;76.55;100715.53;8660755;33;20176;-74
2021/01/18 15:46:19;;;;;;;20.65;8.38;;;;;;;6.28;76.91;100698.81;8661493;33;20157;-74
2021/01/18 15:51:23;;;;;;;12.55;6.43;;;;;;;6.37;76.68;100709.03;8660950;33;20657;-74
2021/01/18 15:56:26;;;;;;;25.15;8.68;;;;;;;6.49;76.95;100694.34;8667613;33;21295;-74
2021/01/18 16:01:29;;;;;;;18.23;8.63;;;;;;;6.24;77.18;100706.03;8675740;33;20292;-74
2021/01/18 16:06:41;;;;;;;23.05;9.30;;;;;;;6.39;76.84;100701.84;8661368;33;20168;-74
2021/01/18 16:11:43;;;;;;;19.90;8.43;;;;;;;6.44;76.36;100707.81;8660461;33;20288;-74
2021/01/18 16:16:46;;;;;;;16.73;9.05;;;;;;;6.48;75.87;100709.41;8660763;33;20210;-74
2021/01/18 16:21:49;;;;;;;18.05;10.43;;;;;;;6.60;75.19;100711.50;8660904;33;20188;-74
2021/01/18 16:26:51;;;;;;;27.00;11.00;;;;;;;6.51;75.73;100716.38;8660356;33;20216;-74
2021/01/18 16:31:55;;;;;;;12.43;5.93;;;;;;;6.68;75.18;100711.16;8659350;33;20184;-73
2021/01/18 16:36:59;;;;;;;13.32;7.53;;;;;;;6.59;75.14;100712.44;8660336;33;20203;-74
2021/01/18 16:42:02;;;;;;;15.25;7.80;;;;;;;6.59;75.26;100709.78;8661196;33;20657;-73
2021/01/18 16:47:06;;;;;;;16.77;8.75;;;;;;;6.68;75.36;100712.03;8682176;33;21145;-74
2021/01/18 16:52:10;;;;;;;26.60;10.13;;;;;;;6.54;75.23;100714.44;8695617;33;20461;-74
2021/01/18 16:57:13;;;;;;;16.55;8.05;;;;;;;6.77;74.65;100709.88;8686923;33;20525;-72
2021/01/18 17:02:15;;;;;;;10.98;5.57;;;;;;;6.50;76.12;100712.88;8658842;33;20246;-73
2021/01/18 17:07:19;;;;;;;9.23;6.40;;;;;;;6.40;77.43;100701.78;8659234;33;20594;-73
2021/01/18 17:12:22;;;;;;;14.60;9.00;;;;;;;6.24;78.80;100700.75;8658444;33;21464;-72
2021/01/18 17:17:24;;;;;;;14.57;7.82;;;;;;;6.20;78.91;100696.50;8658908;33;20660;-74
2021/01/18 17:22:28;;;;;;;16.55;8.05;;;;;;;6.32;79.10;100706.56;8659232;33;21121;-74
2021/01/18 17:27:31;;;;;;;20.85;8.70;;;;;;;6.69;77.73;100702.25;8658961;33;20182;-73
2021/01/18 17:32:34;;;;;;;24.13;10.63;;;;;;;6.50;78.12;100710.22;8702119;33;20187;-73
2021/01/18 17:37:41;;;;;;;19.15;9.75;;;;;;;6.50;77.45;100698.72;8710075;33;20674;-73
2021/01/18 17:42:43;;;;;;;19.20;8.05;;;;;;;6.58;76.76;100694.81;8714339;33;20179;-73
2021/01/18 17:47:46;;;;;;;14.70;8.13;;;;;;;6.83;76.02;100691.88;8715386;33;20203;-72
2021/01/18 17:52:50;;;;;;;15.00;7.43;;;;;;;6.56;76.37;100694.00;8715481;33;20679;-74
2021/01/18 17:57:53;;;;;;;10.57;5.70;;;;;;;6.73;75.39;100695.03;8713670;33;20194;-73
2021/01/18 18:02:55;;;;;;;21.08;9.82;;;;;;;6.86;75.19;100698.84;8715324;33;20191;-74
2021/01/18 18:07:58;;;;;;;13.57;8.45;;;;;;;6.60;75.04;100695.56;8715622;33;20953;-75
2021/01/18 18:13:01;;;;;;;17.77;9.45;;;;;;;6.75;75.85;100698.50;8715620;33;20350;-73
2021/01/18 18:18:04;;;;;;;12.40;7.85;;;;;;;6.76;75.14;100695.75;8714574;33;20262;-74
2021/01/18 18:23:10;;;;;;;9.77;6.20;;;;;;;6.72;74.82;100702.16;8714853;33;20187;-74
2021/01/18 18:28:12;;;;;;;20.42;8.75;;;;;;;6.65;75.81;100706.84;8715944;33;20259;-74
2021/01/18 18:33:15;;;;;;;17.13;8.18;;;;;;;6.71;75.41;100700.41;8715597;33;20337;-75
2021/01/18 18:38:18;;;;;;;17.67;10.77;;;;;;;6.63;75.42;100694.56;8716281;33;20188;-73
2021/01/18 18:43:21;;;;;;;15.38;9.15;;;;;;;6.58;75.98;100688.59;8715177;33;20681;-73
2021/01/18 18:48:23;;;;;;;17.55;8.07;;;;;;;6.59;75.69;100698.31;8716129;33;20152;-73
2021/01/18 18:53:27;;;;;;;18.02;9.77;;;;;;;6.78;75.39;100687.72;8715074;33;20183;-73
2021/01/18 18:58:29;;;;;;;17.52;9.27;;;;;;;6.71;75.83;100688.91;8712231;33;20158;-73
2021/01/18 19:03:32;;;;;;;17.20;7.78;;;;;;;6.85;75.54;100705.94;8714812;33;20144;-73
2021/01/18 19:08:35;;;;;;;23.30;10.40;;;;;;;6.80;75.40;100691.16;8715219;33;20166;-73
2021/01/18 19:13:37;;;;;;;18.48;8.85;;;;;;;6.60;75.68;100679.66;8720479;33;20286;-73
2021/01/18 19:18:53;;;;;;;14.32;7.72;;;;;;;6.71;75.34;100665.03;8720650;33;20601;-74
2021/01/18 19:23:57;;;;;;;17.20;7.97;;;;;;;6.70;75.70;100677.44;8720330;33;20152;-74
2021/01/18 19:28:59;;;;;;;19.90;9.73;;;;;;;6.65;77.85;100664.38;8720278;33;20917;-74
2021/01/18 19:34:01;;;;;;;18.23;7.90;;;;;;;6.05;80.01;100660.88;8726660;33;20215;-73
2021/01/18 19:39:06;;;;;;;13.73;6.20;;;;;;;6.21;81.06;100688.47;8739611;33;20436;-74
2021/01/18 19:44:11;;;;;;;22.63;10.57;;;;;;;6.22;81.32;100684.88;8724020;33;20464;-74
2021/01/18 19:49:16;;;;;;;18.95;10.50;;;;;;;6.27;81.44;100681.19;8721141;33;20346;-74
2021/01/18 19:54:21;;;;;;;21.17;11.68;;;;;;;6.61;80.78;100665.47;8695812;33;20172;-73
2021/01/18 19:59:24;;;;;;;27.92;12.30;;;;;;;6.48;81.32;100666.09;8668951;33;20175;-74
2021/01/18 20:04:26;;;;;;;19.02;10.27;;;;;;;6.24;82.15;100667.09;8719615;33;20251;-74
2021/01/18 20:09:30;;;;;;;23.30;11.68;;;;;;;6.25;82.40;100644.06;8719334;33;20217;-75
2021/01/18 20:14:32;;;;;;;23.50;11.85;;;;;;;6.22;81.87;100647.72;8719182;33;20180;-75
2021/01/18 20:19:35;;;;;;;30.13;13.93;;;;;;;6.40;81.64;100645.19;8718648;33;20791;-75
2021/01/18 20:24:38;;;;;;;29.55;14.68;;;;;;;6.30;82.05;100659.81;8719247;33;20234;-75
2021/01/18 20:29:41;;;;;;;24.17;12.18;;;;;;;6.31;81.14;100650.91;8717915;33;20216;-73
2021/01/18 20:34:43;;;;;;;30.92;13.68;;;;;;;6.51;80.92;100660.63;8718735;33;20183;-75
2021/01/18 20:39:46;;;;;;;22.33;11.60;;;;;;;6.20;81.86;100668.19;8719020;33;20195;-74
2021/01/18 20:44:49;;;;;;;14.88;7.05;;;;;;;6.01;81.73;100660.16;8719818;33;20903;-77
2021/01/18 20:49:52;;;;;;;20.63;10.60;;;;;;;6.06;81.92;100659.09;8717159;33;20241;-74
2021/01/18 20:54:56;;;;;;;10.57;5.15;;;;;;;5.98;81.34;100651.50;8718491;33;20499;-76
2021/01/18 21:07:50;;;;;;;21.23;9.85;;;;;;;6.16;81.57;100644.50;8807169;32;20580;-73
2021/01/18 21:12:53;;;;;;;28.03;15.93;;;;;;;6.20;81.64;100643.44;8740216;33;20695;-74
2021/01/18 21:17:56;;;;;;;25.88;10.65;;;;;;;6.20;81.24;100646.97;8740641;33;20447;-74
2021/01/18 21:23:00;;;;;;;28.52;13.43;;;;;;;6.18;81.21;100646.16;8727655;33;20179;-74
2021/01/18 21:28:03;;;;;;;26.55;13.70;;;;;;;6.26;81.18;100652.94;8655003;33;20209;-73
2021/01/18 21:33:05;;;;;;;28.13;14.32;;;;;;;6.19;80.84;100631.09;8682047;33;20271;-74
2021/01/18 21:38:09;;;;;;;24.95;12.95;;;;;;;6.23;80.09;100633.56;8682010;33;20472;-74
2021/01/18 21:43:12;;;;;;;22.90;12.23;;;;;;;6.38;79.61;100637.28;8681224;33;20424;-74
2021/01/18 21:48:14;;;;;;;18.92;9.80;;;;;;;6.29;79.30;100616.50;8681719;33;20244;-73
2021/01/18 21:53:18;;;;;;;19.13;8.68;;;;;;;6.11;79.37;100614.66;8681226;33;20144;-73
2021/01/18 21:58:20;;;;;;;19.88;9.68;;;;;;;6.20;79.36;100608.97;8680982;33;20162;-75
2021/01/18 22:03:22;;;;;;;22.27;11.45;;;;;;;6.08;79.92;100612.16;8681113;33;20238;-74
2021/01/18 22:08:26;;;;;;;24.33;12.55;;;;;;;6.12;79.86;100601.34;8681453;33;20595;-74
2021/01/18 22:13:28;;;;;;;30.52;14.38;;;;;;;6.06;80.19;100603.38;8681253;33;21028;-74
2021/01/18 22:18:30;;;;;;;26.67;13.52;;;;;;;6.17;79.82;100598.47;8664089;33;21930;-73
2021/01/18 22:23:33;;;;;;;29.67;12.93;;;;;;;6.39;79.69;100601.88;8661788;33;20227;-73
2021/01/18 22:28:36;;;;;;;34.38;15.57;;;;;;;6.17;80.20;100593.16;8661529;33;20164;-73
2021/01/18 22:33:39;;;;;;;25.58;13.88;;;;;;;6.36;80.00;100598.47;8661478;33;20579;-73
2021/01/18 22:38:43;;;;;;;26.00;12.63;;;;;;;6.36;80.05;100609.09;8661559;33;20561;-73
2021/01/18 22:43:45;;;;;;;23.85;12.25;;;;;;;6.44;79.95;100618.47;8661513;33;20582;-73
2021/01/18 22:48:48;;;;;;;38.42;17.63;;;;;;;6.56;79.96;100605.53;8661484;33;20462;-73
2021/01/18 22:53:52;;;;;;;42.50;19.23;;;;;;;6.52;80.01;100598.63;8660830;33;20149;-73
2021/01/18 22:58:55;;;;;;;34.45;14.93;;;;;;;6.49;79.36;100588.16;8660574;33;21463;-73
2021/01/18 23:03:58;;;;;;;32.30;14.00;;;;;;;6.42;79.90;100591.13;8660695;33;20822;-73
2021/01/18 23:09:01;;;;;;;21.65;10.27;;;;;;;6.27;80.80;100585.66;8661252;33;20235;-73
2021/01/18 23:14:03;;;;;;;25.92;12.88;;;;;;;6.25;80.96;100580.41;8660979;33;20665;-73
2021/01/18 23:19:09;;;;;;;43.28;19.73;;;;;;;6.23;81.46;100569.00;8660440;33;20874;-73
2021/01/18 23:24:12;;;;;;;36.28;17.60;;;;;;;6.62;80.51;100568.09;8660016;33;20189;-73
2021/01/18 23:29:15;;;;;;;35.70;16.42;;;;;;;6.45;80.43;100575.03;8659805;33;20203;-73
2021/01/18 23:34:18;;;;;;;40.05;18.90;;;;;;;6.53;80.03;100552.59;8660104;33;20707;-73
2021/01/18 23:39:21;;;;;;;32.60;15.95;;;;;;;6.51;79.83;100546.50;8660434;33;20287;-74
2021/01/18 23:44:23;;;;;;;29.77;13.43;;;;;;;6.53;79.23;100536.69;8660740;33;20226;-73